sensor_id;sensor_type;location;lat;lon;timestamp;pressure;altitude;pressure_sealevel;temperature;humidity
72925;BME280;61070;50.794;7.054;2023-05-19T00:00:14;101731.97;;;10.26;82.78
72925;BME280;61070;50.794;7.054;2023-05-19T00:02:40;101722.22;;;10.20;82.72
72925;BME280;61070;50.794;7.054;2023-05-19T00:05:08;101721.34;;;10.21;82.92
72925;BME280;61070;50.794;7.054;2023-05-19T00:07:37;101720.41;;;10.19;82.44
72925;BME280;61070;50.794;7.054;2023-05-19T00:10:03;101725.78;;;10.22;82.74
72925;BME280;61070;50.794;7.054;2023-05-19T00:12:28;101726.63;;;10.19;83.55
72925;BME280;61070;50.794;7.054;2023-05-19T00:14:54;101723.97;;;10.19;83.65
72925;BME280;61070;50.794;7.054;2023-05-19T00:17:20;101723.06;;;10.17;84.46
72925;BME280;61070;50.794;7.054;2023-05-19T00:19:45;101720.38;;;10.11;84.17
72925;BME280;61070;50.794;7.054;2023-05-19T00:22:10;101723.84;;;10.04;84.30
72925;BME280;61070;50.794;7.054;2023-05-19T00:24:36;101718.56;;;10.03;85.26
72925;BME280;61070;50.794;7.054;2023-05-19T00:27:01;101722.97;;;10.04;84.98
72925;BME280;61070;50.794;7.054;2023-05-19T00:29:27;101717.59;;;9.95;85.84
72925;BME280;61070;50.794;7.054;2023-05-19T00:31:53;101719.41;;;9.99;86.50
72925;BME280;61070;50.794;7.054;2023-05-19T00:34:18;101717.59;;;9.95;85.74
72925;BME280;61070;50.794;7.054;2023-05-19T00:36:44;101715.88;;;9.97;86.02
72925;BME280;61070;50.794;7.054;2023-05-19T00:39:09;101714.13;;;9.97;87.71
72925;BME280;61070;50.794;7.054;2023-05-19T00:41:34;101715.81;;;9.92;86.90
72925;BME280;61070;50.794;7.054;2023-05-19T00:44:00;101718.50;;;9.95;87.48
72925;BME280;61070;50.794;7.054;2023-05-19T00:46:25;101718.50;;;9.95;87.38
72925;BME280;61070;50.794;7.054;2023-05-19T00:48:50;101721.19;;;9.97;87.20
72925;BME280;61070;50.794;7.054;2023-05-19T00:51:16;101719.38;;;9.94;88.09
72925;BME280;61070;50.794;7.054;2023-05-19T00:53:43;101718.47;;;9.92;88.64
72925;BME280;61070;50.794;7.054;2023-05-19T00:56:13;101722.84;;;9.85;88.42
72925;BME280;61070;50.794;7.054;2023-05-19T00:58:39;101722.88;;;9.87;88.36
72925;BME280;61070;50.794;7.054;2023-05-19T01:01:04;101731.69;;;9.90;88.41
72925;BME280;61070;50.794;7.054;2023-05-19T01:03:33;101730.75;;;9.81;89.08
72925;BME280;61070;50.794;7.054;2023-05-19T01:06:00;101728.84;;;9.65;89.57
72925;BME280;61070;50.794;7.054;2023-05-19T01:08:32;101730.59;;;9.62;89.96
72925;BME280;61070;50.794;7.054;2023-05-19T01:10:58;101731.50;;;9.63;90.54
72925;BME280;61070;50.794;7.054;2023-05-19T01:13:25;101727.03;;;9.59;90.31
72925;BME280;61070;50.794;7.054;2023-05-19T01:16:08;101725.25;;;9.56;91.42
72925;BME280;61070;50.794;7.054;2023-05-19T01:18:46;101723.47;;;9.54;92.10
72925;BME280;61070;50.794;7.054;2023-05-19T01:24:26;101711.03;;;9.42;92.25
72925;BME280;61070;50.794;7.054;2023-05-19T01:27:04;101703.88;;;9.33;93.69
72925;BME280;61070;50.794;7.054;2023-05-19T01:32:32;101714.59;;;9.50;94.30
72925;BME280;61070;50.794;7.054;2023-05-19T01:34:59;101719.84;;;9.44;94.52
72925;BME280;61070;50.794;7.054;2023-05-19T01:37:25;101703.03;;;9.38;94.09
72925;BME280;61070;50.794;7.054;2023-05-19T01:39:51;101707.41;;;9.32;94.34
72925;BME280;61070;50.794;7.054;2023-05-19T01:42:19;101707.44;;;9.36;94.70
72925;BME280;61070;50.794;7.054;2023-05-19T01:44:45;101705.56;;;9.25;93.10
72925;BME280;61070;50.794;7.054;2023-05-19T01:47:11;101705.56;;;9.25;93.63
72925;BME280;61070;50.794;7.054;2023-05-19T01:49:36;101698.53;;;9.26;93.59
72925;BME280;61070;50.794;7.054;2023-05-19T01:52:02;101704.69;;;9.26;94.83
72925;BME280;61070;50.794;7.054;2023-05-19T01:54:27;101711.75;;;9.26;94.62
72925;BME280;61070;50.794;7.054;2023-05-19T01:57:27;101709.94;;;9.19;94.04
72925;BME280;61070;50.794;7.054;2023-05-19T02:00:12;101718.66;;;9.12;94.17
72925;BME280;61070;50.794;7.054;2023-05-19T02:02:55;101714.19;;;9.06;94.40
72925;BME280;61070;50.794;7.054;2023-05-19T02:05:33;101719.44;;;9.04;94.06
72925;BME280;61070;50.794;7.054;2023-05-19T02:08:14;101720.22;;;8.94;94.21
72925;BME280;61070;50.794;7.054;2023-05-19T02:10:54;101718.41;;;8.89;94.60
72925;BME280;61070;50.794;7.054;2023-05-19T02:13:23;101729.81;;;8.85;93.66
72925;BME280;61070;50.794;7.054;2023-05-19T02:15:54;101720.91;;;8.77;93.23
72925;BME280;61070;50.794;7.054;2023-05-19T02:18:23;101730.56;;;8.73;92.84
72925;BME280;61070;50.794;7.054;2023-05-19T02:20:49;101723.44;;;8.70;92.92
72925;BME280;61070;50.794;7.054;2023-05-19T02:23:14;101720.78;;;8.66;93.64
72925;BME280;61070;50.794;7.054;2023-05-19T02:25:40;101732.19;;;8.62;94.61
72925;BME280;61070;50.794;7.054;2023-05-19T02:28:05;101725.06;;;8.59;93.40
72925;BME280;61070;50.794;7.054;2023-05-19T02:30:30;101725.91;;;8.54;95.45
72925;BME280;61070;50.794;7.054;2023-05-19T02:32:56;101732.81;;;8.45;95.33
72925;BME280;61070;50.794;7.054;2023-05-19T02:35:21;101723.97;;;8.42;94.33
72925;BME280;61070;50.794;7.054;2023-05-19T02:37:46;101719.47;;;8.35;94.76
72925;BME280;61070;50.794;7.054;2023-05-19T02:40:11;101715.91;;;8.33;96.24
72925;BME280;61070;50.794;7.054;2023-05-19T02:42:37;101720.19;;;8.25;95.67
72925;BME280;61070;50.794;7.054;2023-05-19T02:45:03;101708.72;;;8.23;96.63
72925;BME280;61070;50.794;7.054;2023-05-19T02:47:28;101707.84;;;8.22;96.18
72925;BME280;61070;50.794;7.054;2023-05-19T02:49:53;101706.09;;;8.24;95.35
72925;BME280;61070;50.794;7.054;2023-05-19T02:52:19;101710.50;;;8.24;94.63
72925;BME280;61070;50.794;7.054;2023-05-19T02:54:44;101713.13;;;8.22;94.59
72925;BME280;61070;50.794;7.054;2023-05-19T02:57:09;101703.44;;;8.23;94.45
72925;BME280;61070;50.794;7.054;2023-05-19T02:59:35;101703.41;;;8.20;93.73
72925;BME280;61070;50.794;7.054;2023-05-19T03:02:01;101712.19;;;8.17;94.26
72925;BME280;61070;50.794;7.054;2023-05-19T03:04:27;101712.19;;;8.17;94.41
72925;BME280;61070;50.794;7.054;2023-05-19T03:06:53;101706.97;;;8.23;94.49
72925;BME280;61070;50.794;7.054;2023-05-19T03:09:19;101699.88;;;8.19;94.98
72925;BME280;61070;50.794;7.054;2023-05-19T03:11:44;101705.16;;;8.19;95.22
72925;BME280;61070;50.794;7.054;2023-05-19T03:14:09;101700.78;;;8.21;95.21
72925;BME280;61070;50.794;7.054;2023-05-19T03:16:36;101705.06;;;8.14;93.85
72925;BME280;61070;50.794;7.054;2023-05-19T03:19:01;101700.69;;;8.15;95.46
72925;BME280;61070;50.794;7.054;2023-05-19T03:21:27;101694.47;;;8.10;96.39
72925;BME280;61070;50.794;7.054;2023-05-19T03:23:52;101693.56;;;8.08;97.42
72925;BME280;61070;50.794;7.054;2023-05-19T03:26:18;101700.31;;;7.89;98.46
72925;BME280;61070;50.794;7.054;2023-05-19T03:28:44;101696.41;;;7.64;100.00
72925;BME280;61070;50.794;7.054;2023-05-19T03:31:09;101703.13;;;7.47;100.00
72925;BME280;61070;50.794;7.054;2023-05-19T03:33:34;101704.81;;;7.42;100.00
72925;BME280;61070;50.794;7.054;2023-05-19T03:36:00;101706.56;;;7.40;100.00
72925;BME280;61070;50.794;7.054;2023-05-19T03:38:25;101709.28;;;7.46;100.00
72925;BME280;61070;50.794;7.054;2023-05-19T03:40:51;101707.59;;;7.48;100.00
72925;BME280;61070;50.794;7.054;2023-05-19T03:43:17;101711.94;;;7.47;100.00
72925;BME280;61070;50.794;7.054;2023-05-19T03:45:43;101710.25;;;7.51;100.00
72925;BME280;61070;50.794;7.054;2023-05-19T03:48:08;101712.03;;;7.52;100.00
72925;BME280;61070;50.794;7.054;2023-05-19T03:50:33;101708.59;;;7.57;100.00
72925;BME280;61070;50.794;7.054;2023-05-19T03:52:59;101714.81;;;7.59;100.00
72925;BME280;61070;50.794;7.054;2023-05-19T03:55:25;101713.97;;;7.62;100.00
72925;BME280;61070;50.794;7.054;2023-05-19T03:57:50;101718.31;;;7.60;100.00
72925;BME280;61070;50.794;7.054;2023-05-19T04:00:17;101721.84;;;7.59;100.00
72925;BME280;61070;50.794;7.054;2023-05-19T04:02:42;101718.34;;;7.62;100.00
72925;BME280;61070;50.794;7.054;2023-05-19T04:05:09;101710.50;;;7.66;100.00
72925;BME280;61070;50.794;7.054;2023-05-19T04:07:34;101714.91;;;7.67;100.00
72925;BME280;61070;50.794;7.054;2023-05-19T04:10:03;101710.66;;;7.75;100.00
72925;BME280;61070;50.794;7.054;2023-05-19T04:12:28;101709.00;;;7.82;100.00
72925;BME280;61070;50.794;7.054;2023-05-19T04:14:53;101707.38;;;7.92;100.00
72925;BME280;61070;50.794;7.054;2023-05-19T04:17:18;101710.09;;;7.96;100.00
72925;BME280;61070;50.794;7.054;2023-05-19T04:19:44;101709.28;;;8.02;99.17
72925;BME280;61070;50.794;7.054;2023-05-19T04:22:09;101707.59;;;8.05;100.00
72925;BME280;61070;50.794;7.054;2023-05-19T04:24:34;101710.31;;;8.10;100.00
72925;BME280;61070;50.794;7.054;2023-05-19T04:27:00;101712.19;;;8.18;100.00
72925;BME280;61070;50.794;7.054;2023-05-19T04:29:27;101713.97;;;8.21;100.00
72925;BME280;61070;50.794;7.054;2023-05-19T04:31:54;101711.34;;;8.23;100.00
72925;BME280;61070;50.794;7.054;2023-05-19T04:34:19;101709.59;;;8.23;100.00
72925;BME280;61070;50.794;7.054;2023-05-19T04:36:44;101715.03;;;8.34;100.00
72925;BME280;61070;50.794;7.054;2023-05-19T04:39:10;101715.09;;;8.35;100.00
72925;BME280;61070;50.794;7.054;2023-05-19T04:41:36;101706.44;;;8.49;100.00
72925;BME280;61070;50.794;7.054;2023-05-19T04:44:07;101715.31;;;8.51;100.00
72925;BME280;61070;50.794;7.054;2023-05-19T04:46:33;101708.34;;;8.59;100.00
72925;BME280;61070;50.794;7.054;2023-05-19T04:48:58;101717.22;;;8.62;99.69
72925;BME280;61070;50.794;7.054;2023-05-19T04:51:25;101719.88;;;8.65;100.00
72925;BME280;61070;50.794;7.054;2023-05-19T04:53:53;101716.47;;;8.72;99.78
72925;BME280;61070;50.794;7.054;2023-05-19T04:56:19;101722.63;;;8.73;99.76
72925;BME280;61070;50.794;7.054;2023-05-19T04:58:44;101719.28;;;8.89;98.45
72925;BME280;61070;50.794;7.054;2023-05-19T05:01:10;101722.91;;;8.97;98.08
72925;BME280;61070;50.794;7.054;2023-05-19T05:03:37;101721.22;;;9.05;97.63
72925;BME280;61070;50.794;7.054;2023-05-19T05:06:03;101721.16;;;8.98;97.73
72925;BME280;61070;50.794;7.054;2023-05-19T05:08:28;101723.84;;;9.05;96.51
72925;BME280;61070;50.794;7.054;2023-05-19T05:10:54;101725.72;;;9.13;95.61
72925;BME280;61070;50.794;7.054;2023-05-19T05:13:21;101723.06;;;9.13;95.78
72925;BME280;61070;50.794;7.054;2023-05-19T05:15:47;101721.50;;;9.30;94.45
72925;BME280;61070;50.794;7.054;2023-05-19T05:18:13;101713.53;;;9.28;95.00
72925;BME280;61070;50.794;7.054;2023-05-19T05:20:40;101721.59;;;9.42;94.81
72925;BME280;61070;50.794;7.054;2023-05-19T05:23:06;101721.59;;;9.42;94.37
72925;BME280;61070;50.794;7.054;2023-05-19T05:25:34;101724.34;;;9.53;94.18
72925;BME280;61070;50.794;7.054;2023-05-19T05:27:59;101720.03;;;9.64;93.03
72925;BME280;61070;50.794;7.054;2023-05-19T05:30:29;101723.59;;;9.68;92.66
72925;BME280;61070;50.794;7.054;2023-05-19T05:32:54;101711.34;;;9.82;91.29
72925;BME280;61070;50.794;7.054;2023-05-19T05:35:21;101722.91;;;9.96;90.75
72925;BME280;61070;50.794;7.054;2023-05-19T05:37:47;101715.81;;;9.92;89.37
72925;BME280;61070;50.794;7.054;2023-05-19T05:40:13;101720.25;;;9.91;89.11
72925;BME280;61070;50.794;7.054;2023-05-19T05:42:38;101718.53;;;10.01;88.69
72925;BME280;61070;50.794;7.054;2023-05-19T05:45:06;101719.44;;;10.05;88.59
72925;BME280;61070;50.794;7.054;2023-05-19T05:47:32;101719.50;;;10.09;89.08
72925;BME280;61070;50.794;7.054;2023-05-19T05:49:58;101719.44;;;10.02;88.04
72925;BME280;61070;50.794;7.054;2023-05-19T05:52:28;101715.91;;;10.01;89.20
72925;BME280;61070;50.794;7.054;2023-05-19T05:54:54;101715.97;;;10.15;88.64
72925;BME280;61070;50.794;7.054;2023-05-19T05:57:19;101716.97;;;10.23;87.05
72925;BME280;61070;50.794;7.054;2023-05-19T05:59:45;101715.19;;;10.27;86.88
72925;BME280;61070;50.794;7.054;2023-05-19T06:02:11;101720.56;;;10.33;86.17
72925;BME280;61070;50.794;7.054;2023-05-19T06:04:36;101725.91;;;10.49;85.11
72925;BME280;61070;50.794;7.054;2023-05-19T06:07:01;101722.44;;;10.55;85.72
72925;BME280;61070;50.794;7.054;2023-05-19T06:09:27;101721.56;;;10.56;85.55
72925;BME280;61070;50.794;7.054;2023-05-19T06:11:54;101726.84;;;10.59;82.70
72925;BME280;61070;50.794;7.054;2023-05-19T06:14:19;101712.78;;;10.72;82.52
72925;BME280;61070;50.794;7.054;2023-05-19T06:16:44;101712.84;;;10.88;83.33
72925;BME280;61070;50.794;7.054;2023-05-19T06:19:12;101711.03;;;10.85;84.19
72925;BME280;61070;50.794;7.054;2023-05-19T06:21:37;101712.00;;;11.01;80.15
72925;BME280;61070;50.794;7.054;2023-05-19T06:24:02;101717.28;;;11.02;82.62
72925;BME280;61070;50.794;7.054;2023-05-19T06:26:28;101714.66;;;11.02;79.33
72925;BME280;61070;50.794;7.054;2023-05-19T06:28:53;101718.19;;;11.06;78.61
72925;BME280;61070;50.794;7.054;2023-05-19T06:31:18;101711.13;;;11.14;79.65
72925;BME280;61070;50.794;7.054;2023-05-19T06:33:43;101709.41;;;11.22;80.13
72925;BME280;61070;50.794;7.054;2023-05-19T06:36:09;101712.03;;;11.22;78.65
72925;BME280;61070;50.794;7.054;2023-05-19T06:38:34;101705.84;;;11.28;78.77
72925;BME280;61070;50.794;7.054;2023-05-19T06:41:00;101708.47;;;11.16;78.15
72925;BME280;61070;50.794;7.054;2023-05-19T06:43:25;101700.56;;;11.35;79.08
72925;BME280;61070;50.794;7.054;2023-05-19T06:45:50;101702.31;;;11.41;77.32
72925;BME280;61070;50.794;7.054;2023-05-19T06:48:16;101703.22;;;11.45;77.70
72925;BME280;61070;50.794;7.054;2023-05-19T06:50:41;101705.88;;;11.52;77.93
72925;BME280;61070;50.794;7.054;2023-05-19T06:53:07;101701.47;;;11.59;79.98
72925;BME280;61070;50.794;7.054;2023-05-19T06:55:32;101698.78;;;11.74;74.95
72925;BME280;61070;50.794;7.054;2023-05-19T06:57:57;101701.47;;;11.86;75.34
72925;BME280;61070;50.794;7.054;2023-05-19T07:00:22;101701.44;;;11.99;73.28
72925;BME280;61070;50.794;7.054;2023-05-19T07:02:48;101705.88;;;11.97;72.11
72925;BME280;61070;50.794;7.054;2023-05-19T07:05:13;101705.00;;;12.01;70.41
72925;BME280;61070;50.794;7.054;2023-05-19T07:07:38;101707.63;;;11.99;70.02
72925;BME280;61070;50.794;7.054;2023-05-19T07:10:04;101699.69;;;11.98;70.15
72925;BME280;61070;50.794;7.054;2023-05-19T07:12:29;101694.34;;;12.23;70.05
72925;BME280;61070;50.794;7.054;2023-05-19T07:14:55;101694.28;;;12.39;69.54
72925;BME280;61070;50.794;7.054;2023-05-19T07:17:20;101692.44;;;12.54;70.40
72925;BME280;61070;50.794;7.054;2023-05-19T07:19:45;101695.91;;;12.75;69.93
72925;BME280;61070;50.794;7.054;2023-05-19T07:22:10;101694.94;;;12.87;68.56
72925;BME280;61070;50.794;7.054;2023-05-19T07:24:36;101683.38;;;12.95;67.13
72925;BME280;61070;50.794;7.054;2023-05-19T07:27:01;101679.84;;;12.90;66.87
72925;BME280;61070;50.794;7.054;2023-05-19T07:29:26;101685.09;;;13.05;66.66
72925;BME280;61070;50.794;7.054;2023-05-19T07:31:52;101686.06;;;12.88;66.73
72925;BME280;61070;50.794;7.054;2023-05-19T07:34:21;101680.66;;;13.07;68.41
72925;BME280;61070;50.794;7.054;2023-05-19T07:36:47;101686.75;;;13.25;68.52
72925;BME280;61070;50.794;7.054;2023-05-19T07:39:12;101687.66;;;13.22;66.31
72925;BME280;61070;50.794;7.054;2023-05-19T07:41:37;101681.44;;;13.23;67.54
72925;BME280;61070;50.794;7.054;2023-05-19T07:44:03;101682.19;;;13.48;65.17
72925;BME280;61070;50.794;7.054;2023-05-19T07:46:34;101681.22;;;13.54;67.25
72925;BME280;61070;50.794;7.054;2023-05-19T07:48:59;101679.31;;;13.68;65.47
72925;BME280;61070;50.794;7.054;2023-05-19T07:51:24;101682.72;;;13.87;64.13
72925;BME280;61070;50.794;7.054;2023-05-19T07:53:50;101675.53;;;13.92;63.64
72925;BME280;61070;50.794;7.054;2023-05-19T07:56:15;101676.25;;;14.09;62.33
72925;BME280;61070;50.794;7.054;2023-05-19T07:58:40;101673.63;;;14.08;63.25
72925;BME280;61070;50.794;7.054;2023-05-19T08:01:06;101674.34;;;14.20;62.38
72925;BME280;61070;50.794;7.054;2023-05-19T08:03:31;101671.63;;;14.28;60.74
72925;BME280;61070;50.794;7.054;2023-05-19T08:05:57;101672.47;;;14.32;60.60
72925;BME280;61070;50.794;7.054;2023-05-19T08:08:23;101663.44;;;14.43;61.98
72925;BME280;61070;50.794;7.054;2023-05-19T08:10:48;101665.88;;;14.63;60.45
72925;BME280;61070;50.794;7.054;2023-05-19T08:13:13;101664.06;;;14.67;60.08
72925;BME280;61070;50.794;7.054;2023-05-19T08:15:39;101662.50;;;14.49;60.47
72925;BME280;61070;50.794;7.054;2023-05-19T08:18:05;101653.19;;;14.80;59.64
72925;BME280;61070;50.794;7.054;2023-05-19T08:20:30;101652.22;;;14.88;59.30
72925;BME280;61070;50.794;7.054;2023-05-19T08:22:56;101647.47;;;15.08;58.33
72925;BME280;61070;50.794;7.054;2023-05-19T08:25:21;101648.97;;;15.24;58.81
72925;BME280;61070;50.794;7.054;2023-05-19T08:27:46;101648.97;;;15.24;58.26
72925;BME280;61070;50.794;7.054;2023-05-19T08:30:12;101653.81;;;15.55;57.54
72925;BME280;61070;50.794;7.054;2023-05-19T08:32:37;101648.84;;;15.33;56.75
72925;BME280;61070;50.794;7.054;2023-05-19T08:35:03;101648.91;;;15.27;57.09
72925;BME280;61070;50.794;7.054;2023-05-19T08:37:28;101639.66;;;15.50;56.95
72925;BME280;61070;50.794;7.054;2023-05-19T08:39:54;101632.91;;;15.27;57.76
72925;BME280;61070;50.794;7.054;2023-05-19T08:42:19;101635.09;;;15.56;59.68
72925;BME280;61070;50.794;7.054;2023-05-19T08:44:44;101633.03;;;15.73;58.02
72925;BME280;61070;50.794;7.054;2023-05-19T08:47:10;101634.84;;;15.71;57.83
72925;BME280;61070;50.794;7.054;2023-05-19T08:49:45;101627.44;;;15.87;57.93
72925;BME280;61070;50.794;7.054;2023-05-19T08:52:18;101629.28;;;15.84;58.21
72925;BME280;61070;50.794;7.054;2023-05-19T08:54:58;101626.09;;;16.11;57.71
72925;BME280;61070;50.794;7.054;2023-05-19T08:57:25;101630.38;;;16.18;56.93
72925;BME280;61070;50.794;7.054;2023-05-19T08:59:51;101624.28;;;16.53;55.02
72925;BME280;61070;50.794;7.054;2023-05-19T09:02:18;101613.34;;;16.64;55.08
72925;BME280;61070;50.794;7.054;2023-05-19T09:04:44;101615.88;;;16.73;56.47
72925;BME280;61070;50.794;7.054;2023-05-19T09:07:13;101611.19;;;16.83;54.39
72925;BME280;61070;50.794;7.054;2023-05-19T09:09:38;101606.00;;;16.77;54.67
72925;BME280;61070;50.794;7.054;2023-05-19T09:12:07;101615.63;;;16.84;55.21
72925;BME280;61070;50.794;7.054;2023-05-19T09:14:32;101605.88;;;16.81;53.08
72925;BME280;61070;50.794;7.054;2023-05-19T09:16:58;101604.88;;;16.45;54.32
72925;BME280;61070;50.794;7.054;2023-05-19T09:19:27;101601.13;;;16.52;53.61
72925;BME280;61070;50.794;7.054;2023-05-19T09:21:59;101612.56;;;16.60;52.85
72925;BME280;61070;50.794;7.054;2023-05-19T09:24:25;101600.44;;;16.84;52.67
72925;BME280;61070;50.794;7.054;2023-05-19T09:26:54;101588.31;;;17.07;51.87
72925;BME280;61070;50.794;7.054;2023-05-19T09:29:19;101588.22;;;17.10;52.40
72925;BME280;61070;50.794;7.054;2023-05-19T09:31:52;101583.44;;;17.24;51.52
72925;BME280;61070;50.794;7.054;2023-05-19T09:34:19;101586.94;;;17.60;51.09
72925;BME280;61070;50.794;7.054;2023-05-19T09:36:49;101580.78;;;17.23;51.36
72925;BME280;61070;50.794;7.054;2023-05-19T09:39:16;101584.06;;;17.69;50.41
72925;BME280;61070;50.794;7.054;2023-05-19T09:41:42;101579.97;;;17.53;49.69
72925;BME280;61070;50.794;7.054;2023-05-19T09:44:12;101576.50;;;17.84;49.70
72925;BME280;61070;50.794;7.054;2023-05-19T09:46:37;101577.03;;;17.96;49.30
72925;BME280;61070;50.794;7.054;2023-05-19T09:49:08;101577.09;;;17.95;48.11
72925;BME280;61070;50.794;7.054;2023-05-19T09:51:40;101579.31;;;18.10;48.08
72925;BME280;61070;50.794;7.054;2023-05-19T09:54:06;101574.50;;;17.92;48.51
72925;BME280;61070;50.794;7.054;2023-05-19T09:56:34;101574.41;;;17.95;47.89
72925;BME280;61070;50.794;7.054;2023-05-19T09:59:01;101572.75;;;17.89;47.88
72925;BME280;61070;50.794;7.054;2023-05-19T10:01:27;101567.97;;;18.31;49.32
72925;BME280;61070;50.794;7.054;2023-05-19T10:03:54;101563.44;;;18.33;46.31
72925;BME280;61070;50.794;7.054;2023-05-19T10:06:20;101568.16;;;18.25;46.71
72925;BME280;61070;50.794;7.054;2023-05-19T10:08:46;101554.59;;;18.30;46.32
72925;BME280;61070;50.794;7.054;2023-05-19T10:11:16;101553.63;;;18.32;47.19
72925;BME280;61070;50.794;7.054;2023-05-19T10:13:41;101547.06;;;18.72;46.92
72925;BME280;61070;50.794;7.054;2023-05-19T10:16:08;101556.28;;;18.92;46.67
72925;BME280;61070;50.794;7.054;2023-05-19T10:18:33;101548.22;;;18.92;44.30
72925;BME280;61070;50.794;7.054;2023-05-19T10:21:01;101546.59;;;18.86;44.25
72925;BME280;61070;50.794;7.054;2023-05-19T10:23:26;101541.06;;;18.64;44.66
72925;BME280;61070;50.794;7.054;2023-05-19T10:25:55;101537.91;;;19.06;44.28
72925;BME280;61070;50.794;7.054;2023-05-19T10:28:21;101534.81;;;19.18;44.05
72925;BME280;61070;50.794;7.054;2023-05-19T10:30:52;101535.72;;;19.68;46.04
72925;BME280;61070;50.794;7.054;2023-05-19T10:33:19;101537.22;;;19.77;43.71
72925;BME280;61070;50.794;7.054;2023-05-19T10:36:08;101527.50;;;19.48;43.21
72925;BME280;61070;50.794;7.054;2023-05-19T10:39:10;101532.38;;;19.35;42.65
72925;BME280;61070;50.794;7.054;2023-05-19T10:42:11;101523.88;;;19.74;42.13
72925;BME280;61070;50.794;7.054;2023-05-19T10:47:24;101524.56;;;19.79;41.51
72925;BME280;61070;50.794;7.054;2023-05-19T10:49:52;101512.34;;;20.42;41.68
72925;BME280;61070;50.794;7.054;2023-05-19T10:52:18;101517.09;;;20.57;40.75
72925;BME280;61070;50.794;7.054;2023-05-19T10:54:45;101510.25;;;20.49;39.75
72925;BME280;61070;50.794;7.054;2023-05-19T10:57:14;101512.94;;;20.49;40.05
72925;BME280;61070;50.794;7.054;2023-05-19T10:59:40;101515.38;;;20.10;41.15
72925;BME280;61070;50.794;7.054;2023-05-19T11:02:09;101506.00;;;19.96;42.26
72925;BME280;61070;50.794;7.054;2023-05-19T11:04:48;101506.06;;;19.95;43.12
72925;BME280;61070;50.794;7.054;2023-05-19T11:07:20;101508.94;;;19.14;43.69
72925;BME280;61070;50.794;7.054;2023-05-19T11:09:50;101508.38;;;20.05;43.53
72925;BME280;61070;50.794;7.054;2023-05-19T11:12:20;101500.44;;;20.24;44.83
72925;BME280;61070;50.794;7.054;2023-05-19T11:14:46;101498.88;;;20.42;42.17
72925;BME280;61070;50.794;7.054;2023-05-19T11:17:14;101491.72;;;20.41;41.79
72925;BME280;61070;50.794;7.054;2023-05-19T11:19:51;101492.28;;;20.26;41.72
72925;BME280;61070;50.794;7.054;2023-05-19T11:22:16;101491.81;;;20.61;41.96
72925;BME280;61070;50.794;7.054;2023-05-19T11:24:43;101492.50;;;20.67;40.75
72925;BME280;61070;50.794;7.054;2023-05-19T11:29:51;101484.06;;;20.30;41.22
72925;BME280;61070;50.794;7.054;2023-05-19T11:32:17;101494.28;;;20.88;40.46
72925;BME280;61070;50.794;7.054;2023-05-19T11:34:44;101481.44;;;20.94;41.70
72925;BME280;61070;50.794;7.054;2023-05-19T11:37:10;101475.81;;;20.79;40.31
72925;BME280;61070;50.794;7.054;2023-05-19T11:39:35;101492.53;;;20.87;39.36
72925;BME280;61070;50.794;7.054;2023-05-19T11:42:01;101479.31;;;20.14;40.28
72925;BME280;61070;50.794;7.054;2023-05-19T11:44:26;101476.50;;;19.95;39.92
72925;BME280;61070;50.794;7.054;2023-05-19T11:46:51;101463.00;;;19.46;38.31
72925;BME280;61070;50.794;7.054;2023-05-19T11:49:17;101462.03;;;19.74;38.94
72925;BME280;61070;50.794;7.054;2023-05-19T11:51:43;101459.53;;;20.16;39.29
72925;BME280;61070;50.794;7.054;2023-05-19T11:54:11;101465.44;;;20.24;39.04
72925;BME280;61070;50.794;7.054;2023-05-19T11:56:41;101460.56;;;20.57;39.35
72925;BME280;61070;50.794;7.054;2023-05-19T11:59:07;101452.16;;;20.87;37.03
72925;BME280;61070;50.794;7.054;2023-05-19T12:01:33;101453.38;;;21.00;36.75
72925;BME280;61070;50.794;7.054;2023-05-19T12:03:59;101452.84;;;21.12;37.24
72925;BME280;61070;50.794;7.054;2023-05-19T12:06:25;101447.97;;;21.61;36.83
72925;BME280;61070;50.794;7.054;2023-05-19T12:08:53;101440.84;;;21.79;35.75
72925;BME280;61070;50.794;7.054;2023-05-19T12:11:18;101443.16;;;22.07;35.08
72925;BME280;61070;50.794;7.054;2023-05-19T12:13:44;101439.94;;;22.18;34.50
72925;BME280;61070;50.794;7.054;2023-05-19T12:16:09;101430.72;;;22.03;34.75
72925;BME280;61070;50.794;7.054;2023-05-19T12:21:01;101421.69;;;22.04;33.56
72925;BME280;61070;50.794;7.054;2023-05-19T12:23:27;101427.00;;;21.68;34.87
72925;BME280;61070;50.794;7.054;2023-05-19T12:25:55;101435.91;;;21.31;34.45
72925;BME280;61070;50.794;7.054;2023-05-19T12:28:21;101433.25;;;21.68;34.99
72925;BME280;61070;50.794;7.054;2023-05-19T12:30:48;101432.56;;;21.24;34.35
72925;BME280;61070;50.794;7.054;2023-05-19T12:33:16;101430.00;;;21.01;37.92
72925;BME280;61070;50.794;7.054;2023-05-19T12:35:41;101427.84;;;20.88;36.45
72925;BME280;61070;50.794;7.054;2023-05-19T12:38:07;101421.69;;;21.05;35.47
72925;BME280;61070;50.794;7.054;2023-05-19T12:40:33;101430.06;;;20.99;35.41
72925;BME280;61070;50.794;7.054;2023-05-19T12:42:59;101422.41;;;21.70;35.45
72925;BME280;61070;50.794;7.054;2023-05-19T12:45:24;101409.41;;;21.97;34.38
72925;BME280;61070;50.794;7.054;2023-05-19T12:47:51;101410.66;;;21.52;34.65
72925;BME280;61070;50.794;7.054;2023-05-19T12:50:17;101404.09;;;21.17;33.71
72925;BME280;61070;50.794;7.054;2023-05-19T12:52:45;101400.59;;;21.74;34.70
72925;BME280;61070;50.794;7.054;2023-05-19T12:55:11;101402.03;;;21.63;34.62
72925;BME280;61070;50.794;7.054;2023-05-19T12:57:40;101402.94;;;21.82;35.72
72925;BME280;61070;50.794;7.054;2023-05-19T13:00:18;101407.13;;;22.08;34.41
72925;BME280;61070;50.794;7.054;2023-05-19T13:03:04;101403.38;;;21.92;33.08
72925;BME280;61070;50.794;7.054;2023-05-19T13:05:31;101392.81;;;21.87;32.82